Time;durP1;ratioP1;P1;durP2;ratioP2;P2;SDS_P1;SDS_P2;PMS_P1;PMS_P2;Temp;Humidity;BMP_temperature;BMP_pressure;BME280_temperature;BME280_humidity;BME280_pressure;Samples;Min_cycle;Max_cycle;Signal;HPM_P1;HPM_P2
2022/08/13 00:00:14;;;;;;;7.43;1.80;;;;;;;16.68;70.48;96280.69;5018162;28;20295;-69
2022/08/13 00:02:43;;;;;;;2.00;1.70;;;;;;;16.57;70.56;96284.84;5014488;28;20255;-69
2022/08/13 00:05:10;;;;;;;2.50;1.80;;;;;;;16.58;71.11;96286.44;5018544;28;20573;-69
2022/08/13 00:07:38;;;;;;;2.83;1.70;;;;;;;16.54;70.76;96287.09;5017958;28;20256;-69
2022/08/13 00:10:08;;;;;;;2.75;1.83;;;;;;;16.51;71.02;96282.22;5018369;28;20209;-69
2022/08/13 00:15:27;;;;;;;2.97;1.70;;;;;;;16.38;71.62;96281.44;5017630;28;20391;-69
2022/08/13 00:17:57;;;;;;;2.53;1.85;;;;;;;16.40;71.73;96282.06;5018206;28;20254;-68
2022/08/13 00:20:28;;;;;;;2.13;1.90;;;;;;;16.53;71.66;96280.16;5018028;28;20202;-68
2022/08/13 00:22:56;;;;;;;2.58;1.65;;;;;;;16.31;71.92;96286.78;5016721;28;20693;-69
2022/08/13 00:25:23;;;;;;;1.92;1.73;;;;;;;16.33;72.26;96282.09;5017696;28;20244;-69
2022/08/13 00:27:56;;;;;;;2.17;1.70;;;;;;;16.21;73.00;96283.72;5018125;28;20509;-69
2022/08/13 00:30:28;;;;;;;4.05;1.83;;;;;;;16.34;71.98;96282.91;5017435;28;20247;-69
2022/08/13 00:32:55;;;;;;;4.70;1.80;;;;;;;15.96;73.76;96282.81;5016891;28;20584;-68
2022/08/13 00:35:22;;;;;;;2.28;1.90;;;;;;;16.11;73.49;96278.03;5017952;28;20777;-69
2022/08/13 00:37:48;;;;;;;5.35;1.70;;;;;;;16.12;73.19;96271.69;5017939;28;20198;-69
2022/08/13 00:40:17;;;;;;;4.80;1.73;;;;;;;16.12;72.49;96263.72;5017120;28;20202;-68
2022/08/13 00:42:44;;;;;;;2.30;1.90;;;;;;;16.09;73.16;96268.66;5016731;28;20209;-71
2022/08/13 00:45:11;;;;;;;2.67;2.03;;;;;;;16.06;73.32;96263.75;5017462;28;20698;-71
2022/08/13 00:50:26;;;;;;;2.80;1.95;;;;;;;15.86;74.24;96274.44;4991610;28;20270;-68
2022/08/13 00:52:54;;;;;;;2.08;1.80;;;;;;;15.69;75.53;96267.09;5016421;28;20677;-68
2022/08/13 00:55:23;;;;;;;4.60;2.20;;;;;;;15.60;75.77;96262.22;5016840;28;20217;-68
2022/08/13 00:57:50;;;;;;;2.88;1.92;;;;;;;15.66;76.04;96264.06;5017236;28;20201;-68
2022/08/13 01:00:19;;;;;;;2.97;1.90;;;;;;;15.64;75.72;96266.09;5018352;28;20206;-68
2022/08/13 01:02:56;;;;;;;2.70;2.00;;;;;;;15.59;76.49;96260.59;5013998;28;20209;-68
2022/08/13 01:05:24;;;;;;;2.45;1.95;;;;;;;15.38;77.05;96250.22;5016612;28;20237;-68
2022/08/13 01:07:51;;;;;;;6.07;1.90;;;;;;;15.50;76.31;96251.22;5016926;28;20201;-68
2022/08/13 01:10:19;;;;;;;2.70;1.70;;;;;;;15.37;76.37;96241.41;5017426;28;20206;-68
2022/08/13 01:12:52;;;;;;;3.33;2.00;;;;;;;15.55;76.87;96248.75;5016292;28;20194;-68
2022/08/13 01:15:23;;;;;;;4.43;2.17;;;;;;;15.50;77.05;96252.03;5016947;28;20236;-68
2022/08/13 01:17:53;;;;;;;3.25;2.03;;;;;;;15.59;76.98;96250.81;5016922;28;20359;-68
2022/08/13 01:20:22;;;;;;;5.68;2.20;;;;;;;15.54;76.29;96245.28;5016145;28;20368;-68
2022/08/13 01:22:52;;;;;;;2.45;1.77;;;;;;;15.47;76.00;96246.31;5016071;28;20206;-68
2022/08/13 01:25:21;;;;;;;9.60;2.00;;;;;;;15.43;77.06;96253.06;5016238;28;20228;-68
2022/08/13 01:27:49;;;;;;;2.92;2.13;;;;;;;15.52;76.97;96243.88;5016678;28;20209;-68
2022/08/13 01:30:19;;;;;;;2.45;1.98;;;;;;;15.49;77.45;96255.72;5017014;28;20217;-68
2022/08/13 01:32:45;;;;;;;2.50;1.70;;;;;;;15.40;77.30;96250.81;5016001;28;20558;-68
2022/08/13 01:35:12;;;;;;;3.58;1.95;;;;;;;15.39;77.36;96241.22;5016367;28;20251;-68
2022/08/13 01:37:40;;;;;;;3.03;1.77;;;;;;;15.50;75.29;96237.94;5016479;28;20701;-68
2022/08/13 01:40:10;;;;;;;3.30;2.08;;;;;;;15.48;75.75;96240.00;5016894;28;20209;-68
2022/08/13 01:42:40;;;;;;;2.42;2.03;;;;;;;15.26;79.23;96238.56;5015773;28;20753;-68
2022/08/13 01:45:08;;;;;;;4.60;2.00;;;;;;;15.29;78.17;96233.66;5016299;28;20232;-68
2022/08/13 01:50:30;;;;;;;2.53;1.92;;;;;;;15.24;78.09;96239.81;5016168;28;20224;-68
2022/08/13 01:53:01;;;;;;;3.33;2.25;;;;;;;15.25;77.28;96239.63;5016088;28;20201;-68
2022/08/13 01:55:39;;;;;;;2.97;1.92;;;;;;;15.24;76.28;96233.47;5016254;28;20230;-68
2022/08/13 01:58:08;;;;;;;2.55;1.80;;;;;;;15.13;77.49;96235.09;5016279;28;20198;-68
2022/08/13 02:00:35;;;;;;;2.70;2.00;;;;;;;14.92;78.64;96240.59;5016730;28;20213;-68
2022/08/13 02:03:04;;;;;;;3.38;2.25;;;;;;;14.90;81.14;96243.44;5012482;28;20248;-68
2022/08/13 02:05:31;;;;;;;4.90;2.47;;;;;;;14.88;82.65;96239.34;5015383;28;20229;-68
2022/08/13 02:08:00;;;;;;;2.90;2.00;;;;;;;14.95;82.09;96230.38;5015969;28;20658;-68
2022/08/13 02:10:27;;;;;;;3.38;2.20;;;;;;;15.06;80.90;96237.75;5013506;28;20259;-68
2022/08/13 02:12:55;;;;;;;4.88;1.95;;;;;;;15.14;79.44;96232.22;5015589;28;20609;-68
2022/08/13 02:15:21;;;;;;;3.10;2.45;;;;;;;15.00;82.07;96232.44;5015590;28;20222;-68
2022/08/13 02:17:48;;;;;;;3.80;2.30;;;;;;;14.87;83.17;96230.59;5016085;28;20681;-68
2022/08/13 02:20:17;;;;;;;4.32;2.20;;;;;;;14.97;82.61;96228.34;5016361;28;20693;-68
2022/08/13 02:22:45;;;;;;;2.60;2.20;;;;;;;15.16;82.44;96227.53;5015277;28;20205;-68
2022/08/13 02:25:13;;;;;;;3.15;2.47;;;;;;;15.20;81.90;96228.75;5016080;28;20257;-68
2022/08/13 02:27:40;;;;;;;3.13;1.92;;;;;;;15.28;80.04;96231.22;5015685;28;20210;-68
2022/08/13 02:30:10;;;;;;;5.93;2.42;;;;;;;15.07;79.99;96233.25;5015261;28;20309;-68
2022/08/13 02:32:37;;;;;;;3.28;2.20;;;;;;;14.98;81.90;96235.28;5015414;28;20967;-68
2022/08/13 02:35:05;;;;;;;3.83;2.47;;;;;;;15.21;81.03;96227.78;5015929;28;20214;-68
2022/08/13 02:37:32;;;;;;;4.00;2.30;;;;;;;15.15;82.16;96235.69;5015706;28;20198;-68
2022/08/13 02:40:00;;;;;;;3.22;2.25;;;;;;;15.23;81.73;96228.38;5015689;28;20205;-68
2022/08/13 02:42:28;;;;;;;2.97;2.10;;;;;;;15.13;81.11;96237.75;5015611;28;20202;-68
2022/08/13 02:44:55;;;;;;;3.00;2.10;;;;;;;14.83;81.80;96233.88;5015631;28;20630;-68
2022/08/13 02:47:23;;;;;;;2.97;2.45;;;;;;;14.95;82.44;96230.38;5016014;28;20198;-68
2022/08/13 02:49:51;;;;;;;3.97;2.50;;;;;;;14.84;83.94;96228.34;5015985;28;20208;-68
2022/08/13 02:52:19;;;;;;;4.07;2.55;;;;;;;14.96;85.34;96237.31;5014653;28;20198;-68
2022/08/13 02:54:48;;;;;;;3.88;2.58;;;;;;;15.11;83.38;96229.16;5015872;28;20221;-68
2022/08/13 02:57:15;;;;;;;3.13;2.17;;;;;;;15.14;82.38;96229.56;5016023;28;20198;-68
2022/08/13 02:59:43;;;;;;;3.17;2.40;;;;;;;15.06;82.19;96227.13;5015697;28;20221;-68
2022/08/13 03:02:10;;;;;;;3.95;2.50;;;;;;;15.20;80.67;96225.25;5013766;28;20514;-68
2022/08/13 03:04:44;;;;;;;3.10;2.30;;;;;;;14.96;81.50;96226.72;5015047;28;20311;-68
2022/08/13 03:07:11;;;;;;;4.65;2.10;;;;;;;14.85;79.94;96235.25;5015441;28;20204;-68
2022/08/13 03:09:37;;;;;;;3.25;1.95;;;;;;;14.76;80.02;96230.38;5015621;28;20209;-68
2022/08/13 03:12:06;;;;;;;4.40;2.28;;;;;;;14.55;83.43;96232.38;5016519;28;20209;-68
2022/08/13 03:14:35;;;;;;;3.33;2.33;;;;;;;14.55;83.67;96227.06;5018865;28;20229;-68
2022/08/13 03:17:01;;;;;;;3.17;2.30;;;;;;;14.40;84.23;96221.94;5019188;28;20572;-68
2022/08/13 03:19:28;;;;;;;3.47;2.45;;;;;;;14.45;83.50;96224.00;5019418;28;20210;-68
2022/08/13 03:21:56;;;;;;;3.28;2.20;;;;;;;14.68;81.94;96215.47;5019249;28;20206;-68
2022/08/13 03:24:22;;;;;;;4.60;2.15;;;;;;;14.50;82.42;96218.91;5017637;28;20953;-68
2022/08/13 03:26:49;;;;;;;3.22;2.40;;;;;;;14.41;84.52;96220.09;5019326;28;20245;-68
2022/08/13 03:29:18;;;;;;;3.05;2.25;;;;;;;14.19;86.31;96223.91;5019650;28;20209;-68
2022/08/13 03:31:46;;;;;;;5.30;2.45;;;;;;;14.30;85.85;96218.84;5019022;28;20766;-68
2022/08/13 03:34:13;;;;;;;3.83;2.22;;;;;;;14.39;84.24;96224.81;5017673;28;20231;-68
2022/08/13 03:36:39;;;;;;;3.88;2.22;;;;;;;14.44;82.06;96219.72;5018550;28;20205;-68
2022/08/13 03:39:07;;;;;;;3.45;2.08;;;;;;;14.40;82.30;96218.50;5019440;28;20209;-67
2022/08/13 03:41:34;;;;;;;6.93;2.67;;;;;;;14.38;82.54;96223.16;5018447;28;20570;-68
2022/08/13 03:44:02;;;;;;;3.22;2.30;;;;;;;14.17;85.37;96218.03;5017521;28;20383;-68
2022/08/13 03:46:29;;;;;;;4.03;2.60;;;;;;;14.11;86.68;96226.75;5019137;28;20550;-68
2022/08/13 03:48:55;;;;;;;3.28;2.30;;;;;;;14.10;87.35;96227.75;5018513;28;20580;-68
2022/08/13 03:51:23;;;;;;;4.47;2.55;;;;;;;13.96;87.78;96228.69;5018315;28;20686;-68
2022/08/13 03:53:50;;;;;;;3.30;2.15;;;;;;;14.20;85.84;96230.84;5017653;28;20221;-68
2022/08/13 03:56:18;;;;;;;3.20;2.40;;;;;;;14.34;84.16;96229.88;5018309;28;20289;-68
2022/08/13 03:58:46;;;;;;;3.60;2.25;;;;;;;14.19;84.12;96226.56;5018834;28;20313;-68
2022/08/13 04:01:15;;;;;;;2.92;2.17;;;;;;;14.30;84.05;96218.84;5018648;28;20194;-68
2022/08/13 04:03:42;;;;;;;2.95;2.40;;;;;;;14.15;86.51;96218.22;5015513;28;20222;-68
2022/08/13 04:06:12;;;;;;;4.00;2.50;;;;;;;14.21;86.00;96216.59;5018037;28;20576;-68
2022/08/13 04:08:39;;;;;;;3.85;2.40;;;;;;;14.20;85.66;96213.13;5018684;28;20201;-68
2022/08/13 04:11:08;;;;;;;4.72;2.65;;;;;;;14.22;86.85;96210.28;5018046;28;20210;-68
2022/08/13 04:13:37;;;;;;;3.17;2.38;;;;;;;14.29;84.22;96211.91;5017217;28;20253;-68
2022/08/13 04:16:07;;;;;;;3.88;2.80;;;;;;;14.24;83.52;96208.25;5018275;28;20579;-68
2022/08/13 04:18:35;;;;;;;5.05;2.55;;;;;;;14.20;83.11;96212.31;5017985;28;20573;-68
2022/08/13 04:21:03;;;;;;;6.70;2.38;;;;;;;14.22;83.37;96215.59;5017848;28;20686;-68
2022/08/13 04:23:29;;;;;;;4.65;2.53;;;;;;;13.96;85.48;96218.09;5016465;28;20205;-68
2022/08/13 04:25:56;;;;;;;3.70;2.60;;;;;;;14.12;83.41;96215.16;5017260;28;20225;-68
2022/08/13 04:28:22;;;;;;;6.20;2.70;;;;;;;14.17;83.54;96212.72;5018369;28;20277;-68
2022/08/13 04:30:50;;;;;;;3.97;3.08;;;;;;;14.40;84.92;96208.69;5018821;28;20206;-68
2022/08/13 04:33:17;;;;;;;4.88;2.30;;;;;;;14.23;84.23;96212.72;5016713;28;20231;-67
2022/08/13 04:35:44;;;;;;;3.05;2.35;;;;;;;14.16;83.72;96219.84;5017725;28;20468;-68
2022/08/13 04:38:11;;;;;;;3.40;2.10;;;;;;;14.12;84.65;96225.75;5017615;28;20292;-68
2022/08/13 04:40:40;;;;;;;8.48;2.72;;;;;;;14.13;84.98;96220.25;5018420;28;20205;-67
2022/08/13 04:43:07;;;;;;;4.22;2.70;;;;;;;14.19;85.18;96226.56;5016979;28;20662;-68
2022/08/13 04:45:36;;;;;;;5.13;2.88;;;;;;;14.17;86.35;96237.38;5017243;28;20230;-68
2022/08/13 04:48:07;;;;;;;4.60;2.50;;;;;;;14.31;85.39;96230.28;5017140;28;20209;-68
2022/08/13 04:50:35;;;;;;;6.60;2.88;;;;;;;14.32;84.80;96221.31;5017506;28;20248;-68
2022/08/13 04:53:02;;;;;;;8.77;2.53;;;;;;;14.18;86.04;96224.97;5016493;28;20202;-68
2022/08/13 04:55:31;;;;;;;3.85;2.55;;;;;;;14.35;84.54;96229.69;5017660;28;20789;-68
2022/08/13 04:57:57;;;;;;;4.03;2.70;;;;;;;14.32;84.47;96231.91;5017155;28;20202;-68
2022/08/13 05:00:25;;;;;;;8.73;2.70;;;;;;;14.39;84.36;96227.44;5017185;28;20221;-68
2022/08/13 05:02:52;;;;;;;4.40;2.67;;;;;;;14.37;85.12;96221.53;5013951;28;20206;-68
2022/08/13 05:05:22;;;;;;;5.45;2.55;;;;;;;14.63;83.99;96228.50;5017115;28;20257;-68
2022/08/13 05:07:52;;;;;;;5.03;2.55;;;;;;;14.51;83.55;96220.53;5017173;28;20206;-68
2022/08/13 05:10:19;;;;;;;7.72;3.13;;;;;;;14.55;84.60;96213.81;5016984;28;20298;-68
2022/08/13 05:12:47;;;;;;;4.97;2.75;;;;;;;14.65;84.95;96228.34;5016541;28;20205;-68
2022/08/13 05:15:14;;;;;;;5.55;3.10;;;;;;;14.62;86.14;96218.09;5016689;28;20222;-68
2022/08/13 05:17:40;;;;;;;3.83;2.78;;;;;;;14.73;85.88;96228.13;5016925;28;20517;-69
2022/08/13 05:20:15;;;;;;;7.22;3.10;;;;;;;14.84;86.69;96228.34;5016698;28;20210;-68
2022/08/13 05:22:43;;;;;;;3.67;2.90;;;;;;;14.85;86.85;96232.59;5016455;28;20197;-68
2022/08/13 05:25:09;;;;;;;6.97;3.03;;;;;;;15.01;85.52;96229.56;5017193;28;20320;-68
2022/08/13 05:27:36;;;;;;;4.97;3.35;;;;;;;15.15;85.03;96235.69;5017001;28;21004;-68
2022/08/13 05:30:04;;;;;;;7.80;3.05;;;;;;;15.23;85.26;96231.03;5016750;28;20245;-68
2022/08/13 05:32:30;;;;;;;6.78;3.58;;;;;;;15.31;85.93;96228.97;5016162;28;20206;-68
2022/08/13 05:34:59;;;;;;;5.95;3.70;;;;;;;15.54;85.41;96226.69;5016683;28;20221;-68
2022/08/13 05:37:25;;;;;;;8.63;4.18;;;;;;;15.64;85.93;96231.56;5016212;28;20206;-69
2022/08/13 05:39:53;;;;;;;8.80;3.45;;;;;;;15.83;86.21;96233.38;5016722;28;20208;-68
2022/08/13 05:42:20;;;;;;;10.60;4.47;;;;;;;15.83;86.33;96228.06;5015834;28;20676;-68
2022/08/13 05:44:48;;;;;;;11.07;4.90;;;;;;;15.87;85.59;96227.41;5017210;28;20232;-69
2022/08/13 05:47:15;;;;;;;8.05;4.78;;;;;;;15.97;84.52;96225.13;5016739;28;20342;-68
2022/08/13 05:49:42;;;;;;;6.85;4.05;;;;;;;16.02;83.98;96233.28;5017029;28;20201;-68
2022/08/13 05:52:11;;;;;;;9.02;4.40;;;;;;;16.12;83.94;96223.84;5016448;28;20202;-68
2022/08/13 05:54:38;;;;;;;11.40;4.47;;;;;;;16.21;83.47;96240.38;5016033;28;20221;-68
2022/08/13 05:57:07;;;;;;;6.40;4.30;;;;;;;16.42;82.87;96229.47;5017581;28;20209;-69
2022/08/13 06:05:02;;;;;;;7.55;4.47;;;;;;;16.62;82.71;96230.97;5017223;28;20243;-68
2022/08/13 06:07:29;;;;;;;7.70;4.15;;;;;;;16.52;84.49;96238.59;5016383;28;20230;-68
2022/08/13 06:09:55;;;;;;;7.82;4.38;;;;;;;16.61;84.33;96227.50;5016325;28;20674;-69
2022/08/13 06:12:24;;;;;;;7.47;4.50;;;;;;;16.78;83.34;96233.13;5016105;28;20232;-69
2022/08/13 06:14:52;;;;;;;6.93;4.00;;;;;;;16.93;82.67;96222.97;5016988;28;20783;-70
2022/08/13 06:17:20;;;;;;;7.85;4.07;;;;;;;17.09;81.88;96225.94;5016360;28;20550;-69
2022/08/13 06:19:46;;;;;;;7.90;4.28;;;;;;;17.09;81.21;96231.25;5016893;28;20205;-69
2022/08/13 06:22:14;;;;;;;4.72;3.70;;;;;;;17.13;80.60;96235.13;5016029;28;20225;-70
2022/08/13 06:24:43;;;;;;;4.47;3.22;;;;;;;17.22;80.06;96237.31;5016492;28;20226;-70
2022/08/13 06:27:11;;;;;;;5.53;3.47;;;;;;;17.31;80.29;96251.19;5016322;28;20226;-69
2022/08/13 06:29:40;;;;;;;3.45;2.90;;;;;;;17.48;79.42;96234.44;5016659;28;20300;-70
2022/08/13 06:32:08;;;;;;;6.05;3.47;;;;;;;17.64;80.03;96238.38;5016307;28;20305;-70
2022/08/13 06:34:35;;;;;;;5.63;3.60;;;;;;;17.86;79.74;96237.75;5015659;28;20217;-70
2022/08/13 06:37:03;;;;;;;5.10;3.40;;;;;;;17.96;79.69;96241.53;5016521;28;21015;-70
2022/08/13 06:39:30;;;;;;;5.80;3.22;;;;;;;18.10;79.36;96236.84;5016221;28;20205;-69
2022/08/13 06:42:02;;;;;;;3.58;2.95;;;;;;;18.27;75.00;96237.91;5015242;28;20201;-69
2022/08/13 06:44:29;;;;;;;4.70;3.28;;;;;;;18.22;75.21;96240.44;5015047;28;20599;-69
2022/08/13 06:47:03;;;;;;;3.83;3.03;;;;;;;18.22;74.53;96243.09;5018161;28;20218;-69
2022/08/13 06:49:30;;;;;;;4.57;3.28;;;;;;;18.29;75.27;96241.16;5020292;28;20216;-72
2022/08/13 06:51:57;;;;;;;6.07;3.35;;;;;;;18.32;75.85;96251.38;5019688;28;20201;-70
2022/08/13 06:54:24;;;;;;;5.47;3.47;;;;;;;18.13;76.48;96247.09;5019515;28;20257;-70
2022/08/13 06:56:53;;;;;;;4.93;3.25;;;;;;;18.22;75.43;96243.09;5020214;28;20285;-70
2022/08/13 06:59:19;;;;;;;5.38;3.53;;;;;;;18.25;75.54;96245.31;5019435;28;20669;-70
2022/08/13 07:01:47;;;;;;;5.82;3.40;;;;;;;18.50;76.21;96242.31;5020499;28;20325;-70
2022/08/13 07:04:19;;;;;;;4.15;3.33;;;;;;;18.65;74.38;96248.06;5016260;28;20244;-70
2022/08/13 07:06:47;;;;;;;6.80;3.45;;;;;;;18.56;74.70;96248.63;5019737;28;20226;-70
2022/08/13 07:09:14;;;;;;;5.00;3.13;;;;;;;18.58;73.23;96241.19;5020462;28;20239;-70
2022/08/13 07:11:44;;;;;;;7.05;3.58;;;;;;;18.54;75.40;96240.81;5020198;28;20580;-69
2022/08/13 07:14:11;;;;;;;3.53;3.03;;;;;;;18.94;75.45;96255.25;5019210;28;20218;-69
2022/08/13 07:16:39;;;;;;;5.00;3.03;;;;;;;18.88;74.27;96247.34;5020211;28;20198;-70
2022/08/13 07:19:05;;;;;;;6.15;3.55;;;;;;;18.97;73.97;96252.94;5020148;28;20209;-70
2022/08/13 07:21:35;;;;;;;4.95;3.00;;;;;;;19.26;74.38;96249.44;5019763;28;20210;-69
2022/08/13 07:24:03;;;;;;;5.30;3.25;;;;;;;19.35;73.50;96255.28;5018754;28;20232;-69
2022/08/13 07:26:32;;;;;;;4.55;2.83;;;;;;;19.39;71.46;96253.75;5019825;28;20327;-69
2022/08/13 07:28:58;;;;;;;4.07;2.80;;;;;;;19.57;72.85;96259.81;5019589;28;20202;-69
2022/08/13 07:31:26;;;;;;;5.80;3.10;;;;;;;19.50;72.05;96264.47;5019366;28;20221;-69
2022/08/13 07:33:55;;;;;;;6.50;3.38;;;;;;;19.32;70.97;96266.41;5019126;28;21088;-69
2022/08/13 07:36:24;;;;;;;6.40;3.60;;;;;;;19.11;72.28;96259.75;5019655;28;20229;-70
2022/08/13 07:38:52;;;;;;;6.30;3.08;;;;;;;19.30;71.35;96271.19;5019369;28;20202;-69
2022/08/13 07:41:21;;;;;;;4.78;3.08;;;;;;;19.32;70.57;96266.41;5019496;28;20224;-69
2022/08/13 07:43:47;;;;;;;8.45;2.97;;;;;;;19.29;72.91;96266.88;5018528;28;20279;-69
2022/08/13 07:46:17;;;;;;;4.63;3.20;;;;;;;19.31;71.87;96267.44;5019030;28;20224;-69
2022/08/13 07:48:49;;;;;;;5.13;3.05;;;;;;;19.46;71.45;96265.94;5019227;28;20292;-70
2022/08/13 07:51:20;;;;;;;5.40;3.08;;;;;;;19.43;71.56;96258.41;5019389;28;20213;-70
2022/08/13 07:53:47;;;;;;;4.75;2.90;;;;;;;19.10;72.09;96251.97;5018148;28;20225;-70
2022/08/13 07:56:18;;;;;;;4.97;2.75;;;;;;;19.47;71.48;96250.75;5018946;28;20197;-70
2022/08/13 07:58:45;;;;;;;4.57;2.80;;;;;;;19.55;71.35;96253.06;5019290;28;20221;-70
2022/08/13 08:01:12;;;;;;;3.38;2.30;;;;;;;19.83;71.22;96254.81;5018976;28;20213;-68
2022/08/13 08:03:41;;;;;;;4.22;2.60;;;;;;;20.21;68.82;96245.28;5014321;28;20351;-69
2022/08/13 08:06:10;;;;;;;4.38;3.10;;;;;;;20.60;67.79;96252.47;5018620;28;20201;-69
2022/08/13 08:08:40;;;;;;;4.38;2.92;;;;;;;20.88;64.48;96269.41;5019160;28;20198;-69
2022/08/13 08:11:08;;;;;;;5.30;2.28;;;;;;;21.05;65.27;96256.03;5018672;28;20236;-69
2022/08/13 08:13:35;;;;;;;3.80;2.63;;;;;;;21.43;64.58;96262.34;5017844;28;20218;-68
2022/08/13 08:16:03;;;;;;;6.25;2.83;;;;;;;21.40;64.09;96264.69;5018819;28;20252;-69
2022/08/13 08:18:30;;;;;;;3.83;2.53;;;;;;;21.50;63.59;96263.84;5018375;28;20198;-69
2022/08/13 08:21:05;;;;;;;3.35;2.22;;;;;;;21.77;61.71;96266.69;5018722;28;20202;-69
2022/08/13 08:23:34;;;;;;;5.78;2.60;;;;;;;22.05;61.54;96262.81;5018334;28;20694;-68
2022/08/13 08:26:06;;;;;;;4.22;2.65;;;;;;;21.95;60.38;96261.84;5018523;28;20217;-69
2022/08/13 08:28:34;;;;;;;6.72;2.90;;;;;;;21.70;59.59;96264.19;5018739;28;20218;-69
2022/08/13 08:31:06;;;;;;;4.65;2.22;;;;;;;21.95;59.64;96256.50;5019592;28;20205;-69
2022/08/13 08:33:34;;;;;;;4.53;2.50;;;;;;;22.20;60.17;96252.28;5017984;28;20260;-69
2022/08/13 08:36:02;;;;;;;4.38;1.90;;;;;;;22.50;60.90;96258.06;5018363;28;20202;-69
2022/08/13 08:44:01;;;;;;;5.00;2.13;;;;;;;22.98;58.95;96260.78;5017463;28;20291;-69
2022/08/13 08:46:33;;;;;;;3.97;2.22;;;;;;;23.24;56.40;96255.44;5018105;28;20213;-69
2022/08/13 08:49:04;;;;;;;2.78;2.20;;;;;;;22.93;56.13;96250.78;5018183;28;20214;-70
2022/08/13 08:51:31;;;;;;;3.83;2.20;;;;;;;23.17;56.40;96251.34;5016860;28;20205;-69
2022/08/13 08:53:59;;;;;;;2.58;1.90;;;;;;;23.03;56.11;96250.94;5017723;28;20221;-69
2022/08/13 08:56:26;;;;;;;2.50;1.92;;;;;;;23.37;53.97;96245.06;5017788;28;20271;-69
2022/08/13 08:58:55;;;;;;;4.25;2.10;;;;;;;23.62;52.72;96237.19;5017474;28;20205;-69
2022/08/13 09:01:24;;;;;;;5.32;2.03;;;;;;;23.78;52.97;96243.53;5018432;28;20202;-69
2022/08/13 09:03:56;;;;;;;4.13;1.83;;;;;;;24.17;50.89;96240.28;5016918;28;20221;-69
2022/08/13 09:06:23;;;;;;;7.97;2.15;;;;;;;24.02;51.76;96221.38;5017508;28;20210;-70
2022/08/13 09:08:52;;;;;;;7.53;2.10;;;;;;;24.31;52.59;96225.28;5017457;28;20217;-69
2022/08/13 09:11:19;;;;;;;2.13;1.83;;;;;;;24.37;51.37;96229.63;5014160;28;20264;-69
2022/08/13 09:13:49;;;;;;;4.18;1.52;;;;;;;24.43;51.74;96228.63;5016589;28;20230;-70
2022/08/13 09:16:16;;;;;;;4.15;1.90;;;;;;;24.50;49.27;96224.59;5017663;28;20202;-69
2022/08/13 09:18:44;;;;;;;2.72;1.70;;;;;;;24.36;49.79;96230.72;5017651;28;20204;-69
2022/08/13 09:21:12;;;;;;;3.85;1.98;;;;;;;24.69;49.30;96223.88;5017713;28;20230;-69
2022/08/13 09:23:45;;;;;;;5.60;1.70;;;;;;;24.63;47.92;96224.09;5016550;28;20222;-69
2022/08/13 09:26:13;;;;;;;5.00;1.92;;;;;;;24.78;48.65;96222.28;5017469;28;20198;-69
2022/08/13 09:28:42;;;;;;;3.70;1.77;;;;;;;24.88;46.88;96227.69;5017295;28;20229;-69
2022/08/13 09:31:10;;;;;;;2.10;1.70;;;;;;;24.85;46.64;96228.22;5017213;28;20267;-68
2022/08/13 09:33:38;;;;;;;3.25;2.03;;;;;;;25.07;46.53;96231.53;5015714;28;20299;-70
2022/08/13 09:36:07;;;;;;;2.20;1.90;;;;;;;25.34;47.28;96226.72;5017001;28;20280;-69
2022/08/13 09:38:36;;;;;;;5.15;2.00;;;;;;;25.33;49.99;96233.19;5016897;28;20263;-70
2022/08/13 09:41:14;;;;;;;3.15;1.80;;;;;;;25.30;48.67;96223.75;5018046;28;20194;-70
2022/08/13 09:43:44;;;;;;;5.78;2.05;;;;;;;25.36;49.11;96224.59;5016318;28;20220;-70
2022/08/13 09:46:11;;;;;;;2.42;1.90;;;;;;;25.37;46.92;96229.72;5017128;28;20201;-69
2022/08/13 09:48:39;;;;;;;2.90;1.70;;;;;;;25.56;45.35;96228.09;5017370;28;20218;-69
2022/08/13 09:51:09;;;;;;;5.03;1.92;;;;;;;25.60;44.57;96222.94;5017235;28;20596;-69
2022/08/13 09:53:36;;;;;;;4.40;2.35;;;;;;;25.66;44.57;96220.00;5015744;28;20228;-70
2022/08/13 09:56:03;;;;;;;3.35;1.80;;;;;;;25.86;45.35;96223.53;5016270;28;20202;-70
2022/08/13 09:58:30;;;;;;;2.63;2.05;;;;;;;26.08;45.14;96220.50;5017052;28;20209;-70
2022/08/13 10:00:57;;;;;;;4.60;2.05;;;;;;;26.35;44.45;96215.59;5016920;28;20202;-69
2022/08/13 10:03:23;;;;;;;7.43;2.10;;;;;;;26.31;43.43;96215.31;5015647;28;20300;-68
2022/08/13 10:05:51;;;;;;;3.08;1.80;;;;;;;26.82;42.69;96222.16;5017068;28;20691;-69
2022/08/13 10:08:19;;;;;;;5.35;2.83;;;;;;;27.05;41.36;96203.41;5016293;28;20225;-69
2022/08/13 10:10:48;;;;;;;3.78;2.00;;;;;;;26.97;40.58;96206.69;5015147;28;20205;-68
2022/08/13 10:13:14;;;;;;;2.15;1.58;;;;;;;27.03;42.38;96204.78;5015747;28;20629;-69
2022/08/13 10:15:41;;;;;;;2.10;1.75;;;;;;;26.61;41.90;96204.41;5016460;28;20678;-69
2022/08/13 10:18:08;;;;;;;3.22;1.60;;;;;;;26.65;42.18;96200.88;5016304;28;20256;-69
2022/08/13 10:20:37;;;;;;;6.88;1.85;;;;;;;26.53;41.34;96199.59;5016796;28;20615;-69
2022/08/13 10:23:05;;;;;;;3.50;1.60;;;;;;;26.55;42.54;96197.41;5016004;28;20208;-68
2022/08/13 10:25:32;;;;;;;2.88;1.70;;;;;;;26.75;41.25;96198.13;5016771;28;20221;-68
2022/08/13 10:28:00;;;;;;;2.85;2.00;;;;;;;26.61;40.71;96188.19;5016639;28;20225;-69
2022/08/13 10:30:29;;;;;;;2.50;1.67;;;;;;;26.87;40.44;96185.09;5016462;28;20986;-69
2022/08/13 10:32:56;;;;;;;6.03;2.10;;;;;;;26.97;41.65;96184.25;5015659;28;20210;-69
2022/08/13 10:35:24;;;;;;;5.32;1.77;;;;;;;27.16;40.15;96184.13;5016631;28;20342;-68
2022/08/13 10:37:54;;;;;;;1.92;1.50;;;;;;;27.34;40.07;96183.44;5016365;28;20193;-68
2022/08/13 10:40:22;;;;;;;2.33;1.88;;;;;;;27.35;37.87;96181.53;5016095;28;20206;-68
2022/08/13 10:42:49;;;;;;;2.92;1.63;;;;;;;27.29;39.09;96183.47;5015623;28;20217;-68
2022/08/13 10:45:18;;;;;;;1.67;1.48;;;;;;;27.65;40.12;96182.13;5016219;28;20218;-69
2022/08/13 10:47:46;;;;;;;5.30;1.70;;;;;;;27.95;39.72;96171.00;5015985;28;20232;-69
2022/08/13 10:50:13;;;;;;;3.15;1.55;;;;;;;27.92;36.89;96172.38;5016934;28;20321;-69
2022/08/13 10:52:40;;;;;;;2.47;1.80;;;;;;;28.01;36.63;96172.56;5016200;28;20301;-68
2022/08/13 10:55:11;;;;;;;13.65;1.83;;;;;;;28.23;37.01;96173.69;5015988;28;20252;-69
2022/08/13 10:57:38;;;;;;;2.97;1.73;;;;;;;28.37;39.18;96172.72;5016144;28;20572;-69
2022/08/13 11:00:09;;;;;;;3.28;2.00;;;;;;;28.75;38.41;96165.50;5016475;28;20209;-68
2022/08/13 11:02:37;;;;;;;5.35;1.80;;;;;;;28.47;39.20;96169.06;5015460;28;20198;-69
2022/08/13 11:05:05;;;;;;;2.35;1.55;;;;;;;28.54;38.89;96175.75;5015970;28;20246;-69
2022/08/13 11:07:32;;;;;;;4.82;1.83;;;;;;;28.51;39.80;96170.94;5015872;28;20229;-69
2022/08/13 11:09:59;;;;;;;2.83;1.65;;;;;;;28.76;36.12;96170.63;5016449;28;20301;-69
2022/08/13 11:12:26;;;;;;;1.58;1.48;;;;;;;28.22;34.21;96163.16;5012555;28;20329;-68
2022/08/13 11:14:53;;;;;;;1.83;1.58;;;;;;;28.63;35.93;96159.66;5016420;28;20218;-69
2022/08/13 11:17:20;;;;;;;7.55;1.60;;;;;;;28.82;36.34;96168.63;5015798;28;20202;-69
2022/08/13 11:19:49;;;;;;;2.95;1.67;;;;;;;29.12;37.44;96161.69;5015742;28;20224;-68
2022/08/13 11:22:16;;;;;;;1.60;1.42;;;;;;;28.28;39.94;96159.28;5015746;28;20225;-68
2022/08/13 11:24:42;;;;;;;4.05;1.30;;;;;;;28.23;37.10;96153.94;5016264;28;20760;-69
2022/08/13 11:27:08;;;;;;;4.55;1.50;;;;;;;28.58;36.06;96160.53;5015847;28;20205;-69
2022/08/13 11:29:35;;;;;;;2.17;1.45;;;;;;;28.66;36.37;96149.03;5015824;28;20748;-69
2022/08/13 11:32:01;;;;;;;1.58;1.48;;;;;;;28.65;36.79;96150.13;5016243;28;20210;-69
2022/08/13 11:34:28;;;;;;;2.60;1.38;;;;;;;28.36;35.29;96146.72;5018728;28;20233;-69
2022/08/13 11:36:56;;;;;;;1.70;1.35;;;;;;;28.22;36.56;96147.72;5019855;28;20206;-68
2022/08/13 11:39:23;;;;;;;2.75;1.75;;;;;;;27.97;36.93;96147.16;5019773;28;20210;-69
2022/08/13 11:41:49;;;;;;;10.13;1.60;;;;;;;28.08;35.66;96152.16;5019103;28;20232;-69
2022/08/13 11:44:16;;;;;;;1.77;1.40;;;;;;;28.21;38.72;96143.38;5018946;28;20247;-69
2022/08/13 11:46:42;;;;;;;1.70;1.42;;;;;;;28.23;37.29;96151.22;5019472;28;20201;-68
2022/08/13 11:49:11;;;;;;;1.75;1.40;;;;;;;28.10;36.20;96141.03;5019274;28;20225;-68
2022/08/13 11:51:38;;;;;;;2.22;1.42;;;;;;;27.95;35.52;96152.03;5019462;28;20213;-69
2022/08/13 11:54:06;;;;;;;3.90;1.50;;;;;;;27.85;36.16;96142.13;5019414;28;20217;-69
2022/08/13 11:56:32;;;;;;;3.45;1.52;;;;;;;27.20;37.48;96152.69;5018494;28;20202;-69